createdAt,value
2016-10-06T00:00:31.424Z,1009.87
2016-10-06T00:01:31.442Z,1009.86
2016-10-06T00:02:31.460Z,1009.82
2016-10-06T00:03:31.480Z,1009.86
2016-10-06T00:04:31.497Z,1009.84
2016-10-06T00:05:31.514Z,1009.77
2016-10-06T00:06:31.532Z,1009.82
2016-10-06T00:07:31.551Z,1009.81
2016-10-06T00:08:31.568Z,1009.81
2016-10-06T00:09:31.586Z,1009.83
2016-10-06T00:10:31.605Z,1009.79
2016-10-06T00:11:31.623Z,1009.83
2016-10-06T00:12:31.642Z,1009.8
2016-10-06T00:13:31.658Z,1009.82
2016-10-06T00:14:31.678Z,1009.8
2016-10-06T00:15:31.693Z,1009.74
2016-10-06T00:16:31.711Z,1009.72
2016-10-06T00:17:31.832Z,1009.72
2016-10-06T00:18:31.856Z,1009.76
2016-10-06T00:19:31.865Z,1009.75
2016-10-06T00:20:31.872Z,1009.7
2016-10-06T00:21:31.881Z,1009.66
2016-10-06T00:22:31.889Z,1009.65
2016-10-06T00:23:31.907Z,1009.61
2016-10-06T00:24:31.902Z,1009.54
2016-10-06T00:25:32.206Z,1009.59
2016-10-06T00:26:31.917Z,1009.51
2016-10-06T00:27:31.925Z,1009.44
2016-10-06T00:28:31.934Z,1009.47
2016-10-06T00:29:32.065Z,1009.48
2016-10-06T00:30:32.145Z,1009.55
2016-10-06T00:31:32.011Z,1009.6
2016-10-06T00:32:32.019Z,1009.55
2016-10-06T00:33:32.019Z,1009.52
2016-10-06T00:34:32.034Z,1009.59
2016-10-06T00:35:32.200Z,1009.49
2016-10-06T00:36:32.159Z,1009.51
2016-10-06T00:37:32.167Z,1009.55
2016-10-06T00:38:32.193Z,1009.51
2016-10-06T00:39:32.202Z,1009.51
2016-10-06T00:40:32.211Z,1009.49
2016-10-06T00:41:32.220Z,1009.49
2016-10-06T00:42:32.227Z,1009.52
2016-10-06T00:43:32.194Z,1009.52
2016-10-06T00:44:32.212Z,1009.46
2016-10-06T00:45:32.232Z,1009.49
2016-10-06T00:46:32.248Z,1009.49
2016-10-06T00:47:32.266Z,1009.42
2016-10-06T00:48:32.285Z,1009.45
2016-10-06T00:49:32.300Z,1009.42
2016-10-06T00:50:32.321Z,1009.45
2016-10-06T00:51:32.338Z,1009.45
2016-10-06T00:52:32.355Z,1009.36
2016-10-06T00:53:32.376Z,1009.4
2016-10-06T00:54:32.390Z,1009.42
2016-10-06T00:55:32.410Z,1009.35
2016-10-06T00:56:32.426Z,1009.31
2016-10-06T00:57:32.444Z,1009.34
2016-10-06T00:58:32.462Z,1009.3
2016-10-06T00:59:32.481Z,1009.29
2016-10-06T01:00:32.497Z,1009.29
2016-10-06T01:01:32.515Z,1009.31
2016-10-06T01:02:32.533Z,1009.33
2016-10-06T01:03:32.552Z,1009.31
2016-10-06T01:04:32.569Z,1009.25
2016-10-06T01:05:32.586Z,1009.32
2016-10-06T01:06:32.610Z,1009.3
2016-10-06T01:07:32.623Z,1009.25
2016-10-06T01:08:32.641Z,1009.25
2016-10-06T01:09:32.662Z,1009.25
2016-10-06T01:10:32.677Z,1009.22
2016-10-06T01:11:32.697Z,1009.24
2016-10-06T01:12:32.711Z,1009.17
2016-10-06T01:13:32.732Z,1009.24
2016-10-06T01:14:32.749Z,1009.19
2016-10-06T01:15:32.766Z,1009.21
2016-10-06T01:16:32.784Z,1009.15
2016-10-06T01:17:32.802Z,1009.18
2016-10-06T01:18:32.819Z,1009.21
2016-10-06T01:19:32.837Z,1009.15
2016-10-06T01:20:32.857Z,1009.18
2016-10-06T01:21:32.873Z,1009.15
2016-10-06T01:22:32.889Z,1009.17
2016-10-06T01:23:32.912Z,1009.15
2016-10-06T01:24:32.926Z,1009.11
2016-10-06T01:25:32.943Z,1009.12
2016-10-06T01:26:32.967Z,1009.11
2016-10-06T01:27:32.979Z,1009.11
2016-10-06T01:28:32.996Z,1009.08
2016-10-06T01:29:33.020Z,1009.11
2016-10-06T01:30:33.031Z,1009.07
2016-10-06T01:31:33.049Z,1009.1
2016-10-06T01:32:33.067Z,1008.98
2016-10-06T01:33:33.084Z,1008.98
2016-10-06T01:34:33.102Z,1009.01
2016-10-06T01:35:33.122Z,1008.99
2016-10-06T01:36:33.139Z,1009
2016-10-06T01:37:33.157Z,1008.97
2016-10-06T01:38:33.175Z,1009
2016-10-06T01:39:33.192Z,1009.01
2016-10-06T01:40:33.209Z,1008.95
2016-10-06T01:41:33.226Z,1008.91
2016-10-06T01:42:33.246Z,1008.89
2016-10-06T01:43:33.263Z,1008.93
2016-10-06T01:44:33.280Z,1008.92
2016-10-06T01:45:33.297Z,1008.91
2016-10-06T01:46:33.315Z,1008.94
2016-10-06T01:47:33.334Z,1008.91
2016-10-06T01:48:33.350Z,1008.92
2016-10-06T01:49:33.368Z,1008.84
2016-10-06T01:50:33.385Z,1008.79
2016-10-06T01:51:33.403Z,1008.8
2016-10-06T01:52:33.421Z,1008.78
2016-10-06T01:53:33.439Z,1008.85
2016-10-06T01:54:33.457Z,1008.81
2016-10-06T01:55:33.474Z,1008.84
2016-10-06T01:56:33.493Z,1008.8
2016-10-06T01:57:33.509Z,1008.81
2016-10-06T01:58:33.528Z,1008.84
2016-10-06T01:59:33.544Z,1008.86
2016-10-06T02:00:33.563Z,1008.86
2016-10-06T02:01:33.581Z,1008.82
2016-10-06T02:02:33.598Z,1008.72
2016-10-06T02:03:33.642Z,1008.75
2016-10-06T02:04:33.634Z,1008.72
2016-10-06T02:05:33.650Z,1008.72
2016-10-06T02:06:33.672Z,1008.72
2016-10-06T02:07:33.685Z,1008.67
2016-10-06T02:08:33.705Z,1008.72
2016-10-06T02:09:33.721Z,1008.68
2016-10-06T02:10:33.738Z,1008.62
2016-10-06T02:11:33.756Z,1008.68
2016-10-06T02:12:33.781Z,1008.67
2016-10-06T02:13:33.792Z,1008.64
2016-10-06T02:14:33.810Z,1008.7
2016-10-06T02:15:33.826Z,1008.64
2016-10-06T02:16:33.847Z,1008.65
2016-10-06T02:17:33.863Z,1008.62
2016-10-06T02:18:33.886Z,1008.7
2016-10-06T02:19:33.896Z,1008.68
2016-10-06T02:20:33.915Z,1008.67
2016-10-06T02:21:33.934Z,1008.7
2016-10-06T02:22:33.950Z,1008.67
2016-10-06T02:23:33.969Z,1008.7
2016-10-06T02:24:33.985Z,1008.68
2016-10-06T02:25:34.003Z,1008.61
2016-10-06T02:26:34.021Z,1008.59
2016-10-06T02:27:34.038Z,1008.59
2016-10-06T02:28:34.058Z,1008.6
2016-10-06T02:29:34.074Z,1008.55
2016-10-06T02:30:34.093Z,1008.6
2016-10-06T02:31:34.114Z,1008.57
2016-10-06T02:32:34.126Z,1008.58
2016-10-06T02:33:34.144Z,1008.55
2016-10-06T02:34:34.162Z,1008.55
2016-10-06T02:35:34.179Z,1008.59
2016-10-06T02:36:34.197Z,1008.65
2016-10-06T02:37:34.216Z,1008.62
2016-10-06T02:38:34.234Z,1008.66
2016-10-06T02:39:34.249Z,1008.65
2016-10-06T02:40:34.268Z,1008.63
2016-10-06T02:41:34.286Z,1008.6
2016-10-06T02:42:34.302Z,1008.63
2016-10-06T02:43:34.320Z,1008.57
2016-10-06T02:44:34.338Z,1008.6
2016-10-06T02:45:34.429Z,1008.6
2016-10-06T02:46:34.373Z,1008.59
2016-10-06T02:47:34.390Z,1008.62
2016-10-06T02:48:34.409Z,1008.55
2016-10-06T02:49:34.426Z,1008.53
2016-10-06T02:50:34.445Z,1008.52
2016-10-06T02:51:34.460Z,1008.58
2016-10-06T02:52:34.483Z,1008.5
2016-10-06T02:53:34.500Z,1008.52
2016-10-06T02:54:34.514Z,1008.58
2016-10-06T02:55:34.536Z,1008.4
2016-10-06T02:56:34.549Z,1008.55
2016-10-06T02:57:34.566Z,1008.48
2016-10-06T02:58:34.584Z,1008.49
2016-10-06T02:59:34.605Z,1008.47
2016-10-06T03:00:34.620Z,1008.45
2016-10-06T03:01:34.636Z,1008.48
2016-10-06T03:02:34.655Z,1008.44
2016-10-06T03:03:34.672Z,1008.45
2016-10-06T03:04:34.687Z,1008.4
2016-10-06T03:05:34.706Z,1008.48
2016-10-06T03:06:34.725Z,1008.39
2016-10-06T03:07:34.741Z,1008.38
2016-10-06T03:08:34.759Z,1008.41
2016-10-06T03:09:34.776Z,1008.39
2016-10-06T03:10:34.794Z,1008.37
2016-10-06T03:11:34.815Z,1008.34
2016-10-06T03:12:34.829Z,1008.36
2016-10-06T03:13:34.846Z,1008.34
2016-10-06T03:14:34.866Z,1008.36
2016-10-06T03:15:34.881Z,1008.33
2016-10-06T03:16:34.898Z,1008.34
2016-10-06T03:17:34.916Z,1008.33
2016-10-06T03:18:34.933Z,1008.31
2016-10-06T03:19:34.950Z,1008.27
2016-10-06T03:20:34.970Z,1008.26
2016-10-06T03:21:34.987Z,1008.23
2016-10-06T03:22:35.004Z,1008.24
2016-10-06T03:23:35.023Z,1008.22
2016-10-06T03:24:35.045Z,1008.27
2016-10-06T03:25:35.058Z,1008.16
2016-10-06T03:26:35.074Z,1008.17
2016-10-06T03:27:35.091Z,1008.15
2016-10-06T03:28:35.110Z,1008.15
2016-10-06T03:29:35.128Z,1008.21
2016-10-06T03:30:35.143Z,1008.1
2016-10-06T03:31:35.161Z,1008.14
2016-10-06T03:32:35.178Z,1008.1
2016-10-06T03:33:35.196Z,1008.13
2016-10-06T03:34:35.221Z,1008.16
2016-10-06T03:35:35.230Z,1008.1
2016-10-06T03:36:35.249Z,1008.14
2016-10-06T03:37:35.265Z,1008.14
2016-10-06T03:38:35.285Z,1008.13
2016-10-06T03:39:35.301Z,1008.06
2016-10-06T03:40:35.327Z,1008.1
2016-10-06T03:41:35.336Z,1008.03
2016-10-06T03:42:35.357Z,1008.09
2016-10-06T03:43:35.371Z,1008.08
2016-10-06T03:44:35.389Z,1008.08
2016-10-06T03:45:35.407Z,1008.11
2016-10-06T03:46:35.423Z,1008.11
2016-10-06T03:47:35.441Z,1008.13
2016-10-06T03:48:35.458Z,1008.08
2016-10-06T03:49:35.475Z,1008.05
2016-10-06T03:50:35.493Z,1008.08
2016-10-06T03:51:35.511Z,1008.02
2016-10-06T03:52:35.528Z,1007.97
2016-10-06T03:53:35.548Z,1007.96
2016-10-06T03:54:35.563Z,1007.99
2016-10-06T03:55:35.580Z,1007.95
2016-10-06T03:56:35.599Z,1008.01
2016-10-06T03:57:35.616Z,1007.97
2016-10-06T03:58:35.633Z,1007.92
2016-10-06T03:59:35.649Z,1007.95
2016-10-06T04:00:35.669Z,1007.93
2016-10-06T04:01:35.685Z,1007.93
2016-10-06T04:02:35.704Z,1007.87
2016-10-06T04:03:35.723Z,1007.94
2016-10-06T04:04:35.736Z,1007.89
2016-10-06T04:05:35.756Z,1007.86
2016-10-06T04:06:35.776Z,1007.82
2016-10-06T04:07:35.788Z,1007.87
2016-10-06T04:08:35.807Z,1007.87
2016-10-06T04:09:35.825Z,1007.87
2016-10-06T04:10:35.842Z,1007.84
2016-10-06T04:11:35.859Z,1007.86
2016-10-06T04:12:35.876Z,1007.83
2016-10-06T04:13:35.895Z,1007.85
2016-10-06T04:14:35.910Z,1007.86
2016-10-06T04:15:35.930Z,1007.81
2016-10-06T04:16:35.947Z,1007.82
2016-10-06T04:17:35.964Z,1007.86
2016-10-06T04:18:35.982Z,1007.85
2016-10-06T04:19:35.999Z,1007.78
2016-10-06T04:20:36.017Z,1007.8
2016-10-06T04:21:36.034Z,1007.81
2016-10-06T04:22:36.053Z,1007.76
2016-10-06T04:23:36.069Z,1007.79
2016-10-06T04:24:36.093Z,1007.8
2016-10-06T04:25:36.104Z,1007.76
2016-10-06T04:26:36.121Z,1007.77
2016-10-06T04:27:36.141Z,1007.73
2016-10-06T04:28:36.157Z,1007.77
2016-10-06T04:29:36.173Z,1007.73
2016-10-06T04:30:36.191Z,1007.74
2016-10-06T04:31:36.211Z,1007.72
2016-10-06T04:32:36.227Z,1007.77
2016-10-06T04:33:36.244Z,1007.72
2016-10-06T04:34:36.261Z,1007.73
2016-10-06T04:35:36.279Z,1007.73
2016-10-06T04:36:36.295Z,1007.75
2016-10-06T04:37:36.314Z,1007.71
2016-10-06T04:38:36.330Z,1007.7
2016-10-06T04:39:36.348Z,1007.74
2016-10-06T04:40:36.365Z,1007.71
2016-10-06T04:41:36.383Z,1007.72
2016-10-06T04:42:36.400Z,1007.63
2016-10-06T04:43:36.416Z,1007.74
2016-10-06T04:44:36.435Z,1007.71
2016-10-06T04:45:36.453Z,1007.71
2016-10-06T04:46:36.473Z,1007.72
2016-10-06T04:47:36.487Z,1007.74
2016-10-06T04:48:36.530Z,1007.65
2016-10-06T04:49:36.524Z,1007.65
2016-10-06T04:50:36.539Z,1007.62
2016-10-06T04:51:36.556Z,1007.65
2016-10-06T04:52:36.579Z,1007.67
2016-10-06T04:53:36.592Z,1007.64
2016-10-06T04:54:36.609Z,1007.63
2016-10-06T04:55:36.629Z,1007.56
2016-10-06T04:56:36.646Z,1007.58
2016-10-06T04:57:36.661Z,1007.59
2016-10-06T04:58:36.679Z,1007.57
2016-10-06T04:59:36.696Z,1007.58
2016-10-06T05:00:36.716Z,1007.6
2016-10-06T05:01:36.733Z,1007.54
2016-10-06T05:02:36.750Z,1007.57
2016-10-06T05:03:36.767Z,1007.52
2016-10-06T05:04:36.784Z,1007.47
2016-10-06T05:05:36.800Z,1007.45
2016-10-06T05:06:36.819Z,1007.53
2016-10-06T05:07:36.836Z,1007.62
2016-10-06T05:08:36.872Z,1007.53
2016-10-06T05:09:36.869Z,1007.5
2016-10-06T05:10:36.890Z,1007.51
2016-10-06T05:11:36.906Z,1007.46
2016-10-06T05:12:36.924Z,1007.48
2016-10-06T05:13:36.941Z,1007.48
2016-10-06T05:14:36.957Z,1007.49
2016-10-06T05:15:36.975Z,1007.47
2016-10-06T05:16:36.997Z,1007.43
2016-10-06T05:17:37.012Z,1007.46
2016-10-06T05:18:37.029Z,1007.47
2016-10-06T05:19:37.044Z,1007.47
2016-10-06T05:20:37.061Z,1007.44
2016-10-06T05:21:37.079Z,1007.41
2016-10-06T05:22:37.099Z,1007.44
2016-10-06T05:23:37.115Z,1007.43
2016-10-06T05:24:37.131Z,1007.45
2016-10-06T05:25:37.149Z,1007.41
2016-10-06T05:26:37.166Z,1007.42
2016-10-06T05:27:37.190Z,1007.46
2016-10-06T05:28:37.202Z,1007.41
2016-10-06T05:29:37.218Z,1007.43
2016-10-06T05:30:37.235Z,1007.4
2016-10-06T05:31:37.253Z,1007.43
2016-10-06T05:32:37.270Z,1007.38
2016-10-06T05:33:37.288Z,1007.36
2016-10-06T05:34:37.304Z,1007.37
2016-10-06T05:35:37.323Z,1007.39
2016-10-06T05:36:37.340Z,1007.35
2016-10-06T05:37:37.359Z,1007.39
2016-10-06T05:38:37.374Z,1007.38
2016-10-06T05:39:37.393Z,1007.38
2016-10-06T05:40:37.411Z,1007.39
2016-10-06T05:41:37.428Z,1007.39
2016-10-06T05:42:37.445Z,1007.38
2016-10-06T05:43:37.462Z,1007.33
2016-10-06T05:44:37.485Z,1007.37
2016-10-06T05:45:37.498Z,1007.37
2016-10-06T05:46:37.514Z,1007.38
2016-10-06T05:47:37.532Z,1007.37
2016-10-06T05:48:37.549Z,1007.42
2016-10-06T05:49:37.567Z,1007.42
2016-10-06T05:50:37.584Z,1007.44
2016-10-06T05:51:37.603Z,1007.36
2016-10-06T05:52:37.619Z,1007.39
2016-10-06T05:53:37.642Z,1007.36
2016-10-06T05:54:37.655Z,1007.36
2016-10-06T05:55:37.673Z,1007.37
2016-10-06T05:56:37.690Z,1007.4
2016-10-06T05:57:37.708Z,1007.37
2016-10-06T05:58:37.725Z,1007.33
2016-10-06T05:59:37.742Z,1007.34
2016-10-06T06:00:37.761Z,1007.33
2016-10-06T06:01:37.781Z,1007.32
2016-10-06T06:02:37.795Z,1007.37
2016-10-06T06:03:37.812Z,1007.29
2016-10-06T06:04:37.830Z,1007.32
2016-10-06T06:05:37.847Z,1007.29
2016-10-06T06:06:37.864Z,1007.29
2016-10-06T06:07:37.883Z,1007.3
2016-10-06T06:08:37.899Z,1007.3
2016-10-06T06:09:37.917Z,1007.27
2016-10-06T06:10:37.936Z,1007.3
2016-10-06T06:11:37.953Z,1007.28
2016-10-06T06:12:37.970Z,1007.3
2016-10-06T06:13:37.987Z,1007.28
2016-10-06T06:14:38.006Z,1007.25
2016-10-06T06:15:38.022Z,1007.27
2016-10-06T06:16:38.039Z,1007.26
2016-10-06T06:17:38.056Z,1007.28
2016-10-06T06:18:38.080Z,1007.32
2016-10-06T06:19:38.092Z,1007.31
2016-10-06T06:20:38.109Z,1007.3
2016-10-06T06:21:38.130Z,1007.33
2016-10-06T06:22:38.143Z,1007.3
2016-10-06T06:23:38.162Z,1007.28
2016-10-06T06:24:38.179Z,1007.3
2016-10-06T06:25:38.218Z,1007.29
2016-10-06T06:26:38.214Z,1007.32
2016-10-06T06:27:38.237Z,1007.3
2016-10-06T06:28:38.255Z,1007.31
2016-10-06T06:29:38.269Z,1007.25
2016-10-06T06:30:38.285Z,1007.3
2016-10-06T06:31:38.302Z,1007.3
2016-10-06T06:32:38.320Z,1007.34
2016-10-06T06:33:38.338Z,1007.32
2016-10-06T06:34:38.355Z,1007.35
2016-10-06T06:35:38.373Z,1007.26
2016-10-06T06:36:38.389Z,1007.3
2016-10-06T06:37:38.408Z,1007.29
2016-10-06T06:38:38.428Z,1007.31
2016-10-06T06:39:38.444Z,1007.29
2016-10-06T06:40:38.463Z,1007.29
2016-10-06T06:41:38.480Z,1007.3
2016-10-06T06:42:38.499Z,1007.35
2016-10-06T06:43:38.513Z,1007.34
2016-10-06T06:44:38.531Z,1007.35
2016-10-06T06:45:38.549Z,1007.34
2016-10-06T06:46:38.567Z,1007.31
2016-10-06T06:47:38.584Z,1007.29
2016-10-06T06:48:38.607Z,1007.35
2016-10-06T06:49:38.628Z,1007.34
2016-10-06T06:50:38.635Z,1007.39
2016-10-06T06:51:38.653Z,1007.35
2016-10-06T06:52:38.674Z,1007.37
2016-10-06T06:53:38.690Z,1007.36
2016-10-06T06:54:38.706Z,1007.37
2016-10-06T06:55:38.725Z,1007.36
2016-10-06T06:56:38.741Z,1007.42
2016-10-06T06:57:38.760Z,1007.42
2016-10-06T06:58:38.778Z,1007.43
2016-10-06T06:59:38.793Z,1007.42
2016-10-06T07:00:38.814Z,1007.37
2016-10-06T07:01:38.830Z,1007.46
2016-10-06T07:02:38.846Z,1007.4
2016-10-06T07:03:38.866Z,1007.44
2016-10-06T07:04:38.882Z,1007.39
2016-10-06T07:05:38.899Z,1007.36
2016-10-06T07:06:38.916Z,1007.37
2016-10-06T07:07:38.934Z,1007.38
2016-10-06T07:08:38.953Z,1007.38
2016-10-06T07:09:38.969Z,1007.35
2016-10-06T07:10:38.989Z,1007.35
2016-10-06T07:11:39.005Z,1007.39
2016-10-06T07:12:39.024Z,1007.39
2016-10-06T07:13:39.040Z,1007.39
2016-10-06T07:14:39.060Z,1007.38
2016-10-06T07:15:39.079Z,1007.38
2016-10-06T07:16:39.094Z,1007.42
2016-10-06T07:17:39.111Z,1007.37
2016-10-06T07:18:39.129Z,1007.38
2016-10-06T07:19:39.146Z,1007.37
2016-10-06T07:20:39.163Z,1007.38
2016-10-06T07:21:39.182Z,1007.44
2016-10-06T07:22:39.199Z,1007.4
2016-10-06T07:23:39.216Z,1007.42
2016-10-06T07:24:39.342Z,1007.41
2016-10-06T07:25:39.253Z,1007.39
2016-10-06T07:26:39.274Z,1007.38
2016-10-06T07:27:39.288Z,1007.37
2016-10-06T07:28:39.306Z,1007.37
2016-10-06T07:29:39.324Z,1007.4
2016-10-06T07:30:39.341Z,1007.4
2016-10-06T07:31:39.358Z,1007.41
2016-10-06T07:32:39.377Z,1007.44
2016-10-06T07:33:39.395Z,1007.42
2016-10-06T07:34:39.412Z,1007.41
2016-10-06T07:35:39.430Z,1007.39
2016-10-06T07:36:39.455Z,1007.38
2016-10-06T07:37:39.466Z,1007.4
2016-10-06T07:38:39.482Z,1007.4
2016-10-06T07:39:39.500Z,1007.4
2016-10-06T07:40:39.518Z,1007.38
2016-10-06T07:41:39.539Z,1007.38
2016-10-06T07:42:39.553Z,1007.38
2016-10-06T07:43:39.571Z,1007.39
2016-10-06T07:44:39.589Z,1007.39
2016-10-06T07:45:39.607Z,1007.41
2016-10-06T07:46:39.626Z,1007.38
2016-10-06T07:47:39.642Z,1007.38
2016-10-06T07:48:39.660Z,1007.33
2016-10-06T07:49:39.677Z,1007.35
2016-10-06T07:50:39.703Z,1007.34
2016-10-06T07:51:39.713Z,1007.32
2016-10-06T07:52:39.731Z,1007.34
2016-10-06T07:53:39.751Z,1007.31
2016-10-06T07:54:39.768Z,1007.32
2016-10-06T07:55:39.783Z,1007.31
2016-10-06T07:56:39.801Z,1007.32
2016-10-06T07:57:39.821Z,1007.34
2016-10-06T07:58:39.842Z,1007.34
2016-10-06T07:59:39.855Z,1007.35
2016-10-06T08:00:39.873Z,1007.38
2016-10-06T08:01:39.894Z,1007.39
2016-10-06T08:02:39.909Z,1007.38
2016-10-06T08:03:39.925Z,1007.42
2016-10-06T08:04:39.943Z,1007.41
2016-10-06T08:05:39.961Z,1007.4
2016-10-06T08:06:39.978Z,1007.45
2016-10-06T08:07:39.998Z,1007.42
2016-10-06T08:08:40.014Z,1007.42
2016-10-06T08:09:40.034Z,1007.4
2016-10-06T08:10:40.046Z,1007.44
2016-10-06T08:11:40.064Z,1007.41
2016-10-06T08:12:40.081Z,1007.43
2016-10-06T08:13:40.106Z,1007.43
2016-10-06T08:14:40.120Z,1007.45
2016-10-06T08:15:40.135Z,1007.44
2016-10-06T08:16:40.153Z,1007.46
2016-10-06T08:17:40.171Z,1007.48
2016-10-06T08:18:40.189Z,1007.42
2016-10-06T08:19:40.206Z,1007.43
2016-10-06T08:20:40.227Z,1007.42
2016-10-06T08:21:40.242Z,1007.38
2016-10-06T08:22:40.259Z,1007.42
2016-10-06T08:23:40.288Z,1007.45
2016-10-06T08:24:40.295Z,1007.41
2016-10-06T08:25:40.313Z,1007.38
2016-10-06T08:26:40.333Z,1007.4
2016-10-06T08:27:40.349Z,1007.4
2016-10-06T08:28:40.371Z,1007.41
2016-10-06T08:29:40.388Z,1007.39
2016-10-06T08:30:40.402Z,1007.36
2016-10-06T08:31:40.420Z,1007.41
2016-10-06T08:32:40.439Z,1007.4
2016-10-06T08:33:40.455Z,1007.36
2016-10-06T08:34:40.474Z,1007.36
2016-10-06T08:35:40.491Z,1007.37
2016-10-06T08:36:40.510Z,1007.35
2016-10-06T08:37:40.527Z,1007.31
2016-10-06T08:38:40.547Z,1007.31
2016-10-06T08:39:40.563Z,1007.28
2016-10-06T08:40:40.581Z,1007.25
2016-10-06T08:41:40.599Z,1007.25
2016-10-06T08:42:40.617Z,1007.28
2016-10-06T08:43:40.640Z,1007.25
2016-10-06T08:44:40.652Z,1007.26
2016-10-06T08:45:40.672Z,1007.21
2016-10-06T08:46:40.689Z,1007.24
2016-10-06T08:47:40.707Z,1007.26
2016-10-06T08:48:40.724Z,1007.26
2016-10-06T08:49:40.743Z,1007.24
2016-10-06T08:50:40.761Z,1007.26
2016-10-06T08:51:40.779Z,1007.29
2016-10-06T08:52:40.797Z,1007.28
2016-10-06T08:53:40.814Z,1007.28
2016-10-06T08:54:40.832Z,1007.25
2016-10-06T08:55:40.850Z,1007.23
2016-10-06T08:56:40.868Z,1007.28
2016-10-06T08:57:40.890Z,1007.29
2016-10-06T08:58:40.905Z,1007.28
2016-10-06T08:59:40.922Z,1007.34
2016-10-06T09:00:40.940Z,1007.33
2016-10-06T09:01:40.958Z,1007.3
2016-10-06T09:02:40.979Z,1007.33
2016-10-06T09:03:40.996Z,1007.33
2016-10-06T09:04:41.013Z,1007.29
2016-10-06T09:05:41.031Z,1007.31
2016-10-06T09:06:41.053Z,1007.24
2016-10-06T09:07:41.067Z,1007.22
2016-10-06T09:08:41.086Z,1007.23
2016-10-06T09:09:41.105Z,1007.22
2016-10-06T09:10:41.214Z,1007.24
2016-10-06T09:11:41.237Z,1007.23
2016-10-06T09:12:41.248Z,1007.23
2016-10-06T09:13:41.282Z,1007.23
2016-10-06T09:14:41.289Z,1007.19
2016-10-06T09:15:41.432Z,1007.19
2016-10-06T09:16:41.331Z,1007.21
2016-10-06T09:17:41.341Z,1007.25
2016-10-06T09:18:41.375Z,1007.24
2016-10-06T09:19:41.385Z,1007.18
2016-10-06T09:20:41.498Z,1007.23
2016-10-06T09:21:41.392Z,1007.18
2016-10-06T09:22:41.401Z,1007.19
2016-10-06T09:23:41.409Z,1007.16
2016-10-06T09:24:41.419Z,1007.19
2016-10-06T09:25:41.557Z,1007.17
2016-10-06T09:26:41.426Z,1007.18
2016-10-06T09:27:41.436Z,1007.15
2016-10-06T09:28:41.485Z,1007.17
2016-10-06T09:29:41.481Z,1007.2
2016-10-06T09:30:41.535Z,1007.14
2016-10-06T09:31:41.505Z,1007.16
2016-10-06T09:32:41.525Z,1007.18
2016-10-06T09:33:41.541Z,1007.27
2016-10-06T09:34:41.559Z,1007.21
2016-10-06T09:35:41.576Z,1007.23
2016-10-06T09:36:41.599Z,1007.25
2016-10-06T09:37:41.615Z,1007.21
2016-10-06T09:38:41.632Z,1007.23
2016-10-06T09:39:41.651Z,1007.22
2016-10-06T09:40:41.669Z,1007.23
2016-10-06T09:41:41.688Z,1007.2
2016-10-06T09:42:41.705Z,1007.23
2016-10-06T09:43:41.724Z,1007.18
2016-10-06T09:44:41.743Z,1007.17
2016-10-06T09:45:41.760Z,1007.18
2016-10-06T09:46:41.781Z,1007.21
2016-10-06T09:47:41.797Z,1007.24
2016-10-06T09:48:41.816Z,1007.2
2016-10-06T09:49:41.834Z,1007.2
2016-10-06T09:50:41.852Z,1007.24
2016-10-06T09:51:41.872Z,1007.22
2016-10-06T09:52:41.892Z,1007.2
2016-10-06T09:53:41.908Z,1007.23
2016-10-06T09:54:41.926Z,1007.21
2016-10-06T09:55:41.945Z,1007.23
2016-10-06T09:56:41.964Z,1007.19
2016-10-06T09:57:41.982Z,1007.23
2016-10-06T09:58:42.001Z,1007.23
2016-10-06T09:59:42.020Z,1007.22
2016-10-06T10:00:42.038Z,1007.28
2016-10-06T10:01:42.059Z,1007.29
2016-10-06T10:02:42.075Z,1007.28
2016-10-06T10:03:42.093Z,1007.24
2016-10-06T10:04:42.114Z,1007.24
2016-10-06T10:05:42.130Z,1007.24
2016-10-06T10:06:42.150Z,1007.27
2016-10-06T10:07:42.168Z,1007.28
2016-10-06T10:08:42.185Z,1007.23
2016-10-06T10:09:42.204Z,1007.27
2016-10-06T10:10:42.223Z,1007.28
2016-10-06T10:11:42.242Z,1007.24
2016-10-06T10:12:42.261Z,1007.27
2016-10-06T10:13:42.279Z,1007.24
2016-10-06T10:14:42.301Z,1007.23
2016-10-06T10:15:42.317Z,1007.23
2016-10-06T10:16:42.334Z,1007.21
2016-10-06T10:17:42.435Z,1007.23
2016-10-06T10:18:42.377Z,1007.24
2016-10-06T10:19:42.391Z,1007.25
2016-10-06T10:20:42.409Z,1007.22
2016-10-06T10:21:42.427Z,1007.27
2016-10-06T10:22:42.447Z,1007.23
2016-10-06T10:23:42.465Z,1007.25
2016-10-06T10:24:42.483Z,1007.25
2016-10-06T10:25:42.502Z,1007.25
2016-10-06T10:26:42.524Z,1007.25
2016-10-06T10:27:42.542Z,1007.25
2016-10-06T10:28:42.558Z,1007.24
2016-10-06T10:29:42.576Z,1007.26
2016-10-06T10:30:42.593Z,1007.25
2016-10-06T10:31:42.630Z,1007.25
2016-10-06T10:32:42.631Z,1007.23
2016-10-06T10:33:42.651Z,1007.2
2016-10-06T10:34:42.668Z,1007.25
2016-10-06T10:35:42.689Z,1007.26
2016-10-06T10:36:42.706Z,1007.23
2016-10-06T10:37:42.780Z,1007.21
2016-10-06T10:38:42.744Z,1007.18
2016-10-06T10:39:42.765Z,1007.21
2016-10-06T10:40:42.781Z,1007.2
2016-10-06T10:41:42.800Z,1007.2
2016-10-06T10:42:42.819Z,1007.19
2016-10-06T10:43:42.837Z,1007.19
2016-10-06T10:44:42.855Z,1007.21
2016-10-06T10:45:42.874Z,1007.18
2016-10-06T10:46:42.892Z,1007.16
2016-10-06T10:47:42.911Z,1007.19
2016-10-06T10:48:42.929Z,1007.15
2016-10-06T10:49:42.947Z,1007.19
2016-10-06T10:50:42.967Z,1007.16
2016-10-06T10:51:42.985Z,1007.19
2016-10-06T10:52:43.094Z,1007.19
2016-10-06T10:53:43.026Z,1007.18
2016-10-06T10:54:43.042Z,1007.2
2016-10-06T10:55:43.059Z,1007.19
2016-10-06T10:56:43.078Z,1007.19
2016-10-06T10:57:43.098Z,1007.2
2016-10-06T10:58:43.115Z,1007.17
2016-10-06T10:59:43.133Z,1007.08
2016-10-06T11:00:43.153Z,1007.11
2016-10-06T11:01:43.174Z,1007.11
2016-10-06T11:02:43.191Z,1007.12
2016-10-06T11:03:43.208Z,1007.13
2016-10-06T11:04:43.225Z,1007.08
2016-10-06T11:05:43.245Z,1007.11
2016-10-06T11:06:43.263Z,1007.09
2016-10-06T11:07:43.282Z,1007.07
2016-10-06T11:08:43.300Z,1007.1
2016-10-06T11:09:43.319Z,1007.09
2016-10-06T11:10:43.335Z,1007.11
2016-10-06T11:11:43.356Z,1007.09
2016-10-06T11:12:43.374Z,1007.11
2016-10-06T11:13:43.394Z,1007.09
2016-10-06T11:14:43.411Z,1007.04
2016-10-06T11:15:43.430Z,1007.1
2016-10-06T11:16:43.449Z,1007.07
2016-10-06T11:17:43.467Z,1007.07
2016-10-06T11:18:43.487Z,1007.07
2016-10-06T11:19:43.503Z,1007.05
2016-10-06T11:20:43.524Z,1007.07
2016-10-06T11:21:43.540Z,1007.09
2016-10-06T11:22:43.559Z,1007.06
2016-10-06T11:23:43.578Z,1007.09
2016-10-06T11:24:43.597Z,1007.06
2016-10-06T11:25:43.615Z,1007.06
2016-10-06T11:26:43.633Z,1007.07
2016-10-06T11:27:43.652Z,1007.07
2016-10-06T11:28:43.671Z,1007.04
2016-10-06T11:29:43.689Z,1007.07
2016-10-06T11:30:43.708Z,1007.07
2016-10-06T11:31:43.727Z,1007.11
2016-10-06T11:32:43.744Z,1007.11
2016-10-06T11:33:43.763Z,1007.09
2016-10-06T11:34:43.781Z,1007.08
2016-10-06T11:35:43.941Z,1007.06
2016-10-06T11:36:43.818Z,1007.11
2016-10-06T11:37:43.837Z,1007.07
2016-10-06T11:38:43.856Z,1007.05
2016-10-06T11:39:43.876Z,1007.05
2016-10-06T11:40:43.893Z,1007.01
2016-10-06T11:41:43.913Z,1007.05
2016-10-06T11:42:43.930Z,1007.06
2016-10-06T11:43:44.049Z,1007.04
2016-10-06T11:44:43.968Z,1007
2016-10-06T11:45:43.986Z,1007.03
2016-10-06T11:46:44.005Z,1006.98
2016-10-06T11:47:44.023Z,1006.96
2016-10-06T11:48:44.041Z,1007
2016-10-06T11:49:44.060Z,1006.93
2016-10-06T11:50:44.079Z,1006.93
2016-10-06T11:51:44.098Z,1006.92
2016-10-06T11:52:44.116Z,1006.93
2016-10-06T11:53:44.137Z,1006.91
2016-10-06T11:54:44.160Z,1006.9
2016-10-06T11:55:44.224Z,1006.92
2016-10-06T11:56:44.192Z,1006.94
2016-10-06T11:57:44.214Z,1006.92
2016-10-06T11:58:44.228Z,1006.92
2016-10-06T11:59:44.247Z,1006.88
2016-10-06T12:00:44.274Z,1006.85
2016-10-06T12:01:44.286Z,1006.89
2016-10-06T12:02:44.304Z,1006.84
2016-10-06T12:03:44.321Z,1006.88
2016-10-06T12:04:44.341Z,1006.92
2016-10-06T12:05:44.358Z,1006.91
2016-10-06T12:06:44.377Z,1006.94
2016-10-06T12:07:44.396Z,1006.93
2016-10-06T12:08:44.415Z,1006.96